sensor_id;sensor_type;location;lat;lon;timestamp;P1;durP1;ratioP1;P2;durP2;ratioP2
6199;SDS011;3133;43.214;27.906;2023-05-29T00:02:10;9.23;;;8.13;;
6199;SDS011;3133;43.214;27.906;2023-05-29T00:04:37;10.67;;;7.73;;
6199;SDS011;3133;43.214;27.906;2023-05-29T00:07:07;11.00;;;8.27;;
6199;SDS011;3133;43.214;27.906;2023-05-29T00:09:34;8.67;;;7.77;;
6199;SDS011;3133;43.214;27.906;2023-05-29T00:12:01;10.13;;;8.00;;
6199;SDS011;3133;43.214;27.906;2023-05-29T00:14:28;9.10;;;7.37;;
6199;SDS011;3133;43.214;27.906;2023-05-29T00:16:55;10.23;;;7.93;;
6199;SDS011;3133;43.214;27.906;2023-05-29T00:19:22;14.20;;;7.83;;
6199;SDS011;3133;43.214;27.906;2023-05-29T00:21:50;19.10;;;8.73;;
6199;SDS011;3133;43.214;27.906;2023-05-29T00:24:19;11.17;;;7.87;;
6199;SDS011;3133;43.214;27.906;2023-05-29T00:26:46;12.10;;;9.07;;
6199;SDS011;3133;43.214;27.906;2023-05-29T00:29:12;12.50;;;8.63;;
6199;SDS011;3133;43.214;27.906;2023-05-29T00:31:39;10.37;;;8.73;;
6199;SDS011;3133;43.214;27.906;2023-05-29T00:34:06;8.93;;;8.13;;
6199;SDS011;3133;43.214;27.906;2023-05-29T00:36:33;10.47;;;8.50;;
6199;SDS011;3133;43.214;27.906;2023-05-29T00:39:02;12.23;;;9.90;;
6199;SDS011;3133;43.214;27.906;2023-05-29T00:41:30;10.73;;;9.10;;
6199;SDS011;3133;43.214;27.906;2023-05-29T00:43:57;11.33;;;9.20;;
6199;SDS011;3133;43.214;27.906;2023-05-29T00:46:24;16.23;;;9.33;;
6199;SDS011;3133;43.214;27.906;2023-05-29T00:48:51;12.13;;;9.40;;
6199;SDS011;3133;43.214;27.906;2023-05-29T00:51:18;12.67;;;10.13;;
6199;SDS011;3133;43.214;27.906;2023-05-29T00:53:45;11.17;;;9.33;;
6199;SDS011;3133;43.214;27.906;2023-05-29T00:56:12;12.43;;;10.27;;
6199;SDS011;3133;43.214;27.906;2023-05-29T00:58:42;12.73;;;10.33;;
6199;SDS011;3133;43.214;27.906;2023-05-29T01:01:10;13.00;;;11.70;;
6199;SDS011;3133;43.214;27.906;2023-05-29T01:03:38;16.07;;;11.17;;
6199;SDS011;3133;43.214;27.906;2023-05-29T01:06:06;12.10;;;10.77;;
6199;SDS011;3133;43.214;27.906;2023-05-29T01:08:35;12.40;;;10.47;;
6199;SDS011;3133;43.214;27.906;2023-05-29T01:11:05;14.10;;;11.37;;
6199;SDS011;3133;43.214;27.906;2023-05-29T01:13:43;16.00;;;11.60;;
6199;SDS011;3133;43.214;27.906;2023-05-29T01:16:12;17.50;;;11.90;;
6199;SDS011;3133;43.214;27.906;2023-05-29T01:18:47;14.40;;;11.47;;
6199;SDS011;3133;43.214;27.906;2023-05-29T01:21:22;15.27;;;11.90;;
6199;SDS011;3133;43.214;27.906;2023-05-29T01:24:03;15.03;;;12.60;;
6199;SDS011;3133;43.214;27.906;2023-05-29T01:26:48;23.30;;;13.03;;
6199;SDS011;3133;43.214;27.906;2023-05-29T01:29:18;18.97;;;14.27;;
6199;SDS011;3133;43.214;27.906;2023-05-29T01:31:49;20.37;;;13.90;;
6199;SDS011;3133;43.214;27.906;2023-05-29T01:34:17;21.93;;;14.37;;
6199;SDS011;3133;43.214;27.906;2023-05-29T01:36:44;16.43;;;13.37;;
6199;SDS011;3133;43.214;27.906;2023-05-29T01:39:12;18.10;;;15.03;;
6199;SDS011;3133;43.214;27.906;2023-05-29T01:41:40;19.57;;;14.97;;
6199;SDS011;3133;43.214;27.906;2023-05-29T01:44:12;23.60;;;14.30;;
6199;SDS011;3133;43.214;27.906;2023-05-29T01:46:40;18.97;;;15.40;;
6199;SDS011;3133;43.214;27.906;2023-05-29T01:49:08;20.90;;;15.37;;
6199;SDS011;3133;43.214;27.906;2023-05-29T01:51:37;20.13;;;15.03;;
6199;SDS011;3133;43.214;27.906;2023-05-29T01:54:06;18.87;;;15.13;;
6199;SDS011;3133;43.214;27.906;2023-05-29T01:56:33;23.60;;;16.07;;
6199;SDS011;3133;43.214;27.906;2023-05-29T01:59:01;21.47;;;16.23;;
6199;SDS011;3133;43.214;27.906;2023-05-29T02:01:31;23.13;;;17.67;;
6199;SDS011;3133;43.214;27.906;2023-05-29T02:03:59;21.63;;;17.13;;
6199;SDS011;3133;43.214;27.906;2023-05-29T02:06:26;23.07;;;17.37;;
6199;SDS011;3133;43.214;27.906;2023-05-29T02:08:53;28.43;;;19.17;;
6199;SDS011;3133;43.214;27.906;2023-05-29T02:11:20;24.93;;;19.17;;
6199;SDS011;3133;43.214;27.906;2023-05-29T02:13:46;22.70;;;18.50;;
6199;SDS011;3133;43.214;27.906;2023-05-29T02:16:14;24.10;;;17.70;;
6199;SDS011;3133;43.214;27.906;2023-05-29T02:18:43;23.23;;;18.13;;
6199;SDS011;3133;43.214;27.906;2023-05-29T02:21:10;26.23;;;18.33;;
6199;SDS011;3133;43.214;27.906;2023-05-29T02:23:37;24.10;;;18.03;;
6199;SDS011;3133;43.214;27.906;2023-05-29T02:26:05;23.07;;;17.77;;
6199;SDS011;3133;43.214;27.906;2023-05-29T02:28:31;24.13;;;17.97;;
6199;SDS011;3133;43.214;27.906;2023-05-29T02:30:58;23.63;;;17.17;;
6199;SDS011;3133;43.214;27.906;2023-05-29T02:33:28;25.90;;;18.40;;
6199;SDS011;3133;43.214;27.906;2023-05-29T02:35:57;21.87;;;17.67;;
6199;SDS011;3133;43.214;27.906;2023-05-29T02:38:24;21.77;;;16.67;;
6199;SDS011;3133;43.214;27.906;2023-05-29T02:40:51;20.87;;;16.23;;
6199;SDS011;3133;43.214;27.906;2023-05-29T02:43:21;22.03;;;15.37;;
6199;SDS011;3133;43.214;27.906;2023-05-29T02:45:48;18.77;;;16.00;;
6199;SDS011;3133;43.214;27.906;2023-05-29T02:48:15;19.00;;;15.50;;
6199;SDS011;3133;43.214;27.906;2023-05-29T02:50:42;23.47;;;14.77;;
6199;SDS011;3133;43.214;27.906;2023-05-29T02:53:10;20.13;;;15.53;;
6199;SDS011;3133;43.214;27.906;2023-05-29T02:55:37;20.10;;;14.33;;
6199;SDS011;3133;43.214;27.906;2023-05-29T02:58:05;22.80;;;15.30;;
6199;SDS011;3133;43.214;27.906;2023-05-29T03:00:32;18.23;;;14.20;;
6199;SDS011;3133;43.214;27.906;2023-05-29T03:02:59;16.73;;;14.20;;
6199;SDS011;3133;43.214;27.906;2023-05-29T03:05:27;15.07;;;13.47;;
6199;SDS011;3133;43.214;27.906;2023-05-29T03:07:54;14.77;;;13.20;;
6199;SDS011;3133;43.214;27.906;2023-05-29T03:10:22;14.93;;;13.43;;
6199;SDS011;3133;43.214;27.906;2023-05-29T03:12:49;16.03;;;13.50;;
6199;SDS011;3133;43.214;27.906;2023-05-29T03:15:16;17.43;;;13.40;;
6199;SDS011;3133;43.214;27.906;2023-05-29T03:17:45;18.13;;;14.30;;
6199;SDS011;3133;43.214;27.906;2023-05-29T03:20:12;18.43;;;14.67;;
6199;SDS011;3133;43.214;27.906;2023-05-29T03:22:53;15.03;;;13.53;;
6199;SDS011;3133;43.214;27.906;2023-05-29T03:25:22;22.10;;;13.83;;
6199;SDS011;3133;43.214;27.906;2023-05-29T03:30:50;15.43;;;13.70;;
6199;SDS011;3133;43.214;27.906;2023-05-29T03:33:17;15.90;;;13.37;;
6199;SDS011;3133;43.214;27.906;2023-05-29T03:35:44;18.03;;;13.20;;
6199;SDS011;3133;43.214;27.906;2023-05-29T03:38:11;17.37;;;12.23;;
6199;SDS011;3133;43.214;27.906;2023-05-29T03:40:42;15.67;;;11.60;;
6199;SDS011;3133;43.214;27.906;2023-05-29T03:43:10;16.00;;;12.80;;
6199;SDS011;3133;43.214;27.906;2023-05-29T03:45:36;15.17;;;12.07;;
6199;SDS011;3133;43.214;27.906;2023-05-29T03:48:03;17.70;;;13.03;;
6199;SDS011;3133;43.214;27.906;2023-05-29T03:50:31;18.70;;;13.53;;
6199;SDS011;3133;43.214;27.906;2023-05-29T03:52:58;15.47;;;12.77;;
6199;SDS011;3133;43.214;27.906;2023-05-29T03:55:25;20.47;;;13.23;;
6199;SDS011;3133;43.214;27.906;2023-05-29T03:57:54;15.00;;;12.40;;
6199;SDS011;3133;43.214;27.906;2023-05-29T04:00:21;16.53;;;13.03;;
6199;SDS011;3133;43.214;27.906;2023-05-29T04:02:48;20.17;;;14.00;;
6199;SDS011;3133;43.214;27.906;2023-05-29T04:05:15;15.00;;;12.33;;
6199;SDS011;3133;43.214;27.906;2023-05-29T04:07:42;12.83;;;11.40;;
6199;SDS011;3133;43.214;27.906;2023-05-29T04:10:09;13.67;;;11.17;;
6199;SDS011;3133;43.214;27.906;2023-05-29T04:12:36;17.77;;;11.70;;
6199;SDS011;3133;43.214;27.906;2023-05-29T04:15:06;15.80;;;11.60;;
6199;SDS011;3133;43.214;27.906;2023-05-29T04:17:34;23.27;;;12.73;;
6199;SDS011;3133;43.214;27.906;2023-05-29T04:20:00;24.70;;;11.63;;
6199;SDS011;3133;43.214;27.906;2023-05-29T04:22:33;18.30;;;12.50;;
6199;SDS011;3133;43.214;27.906;2023-05-29T04:25:00;18.00;;;12.13;;
6199;SDS011;3133;43.214;27.906;2023-05-29T04:27:28;18.30;;;12.87;;
6199;SDS011;3133;43.214;27.906;2023-05-29T04:29:57;14.60;;;12.27;;
6199;SDS011;3133;43.214;27.906;2023-05-29T04:32:26;18.40;;;13.37;;
6199;SDS011;3133;43.214;27.906;2023-05-29T04:34:53;17.23;;;13.47;;
6199;SDS011;3133;43.214;27.906;2023-05-29T04:37:22;18.70;;;12.57;;
6199;SDS011;3133;43.214;27.906;2023-05-29T04:39:54;17.90;;;13.40;;
6199;SDS011;3133;43.214;27.906;2023-05-29T04:42:21;22.77;;;13.13;;
6199;SDS011;3133;43.214;27.906;2023-05-29T04:44:50;18.40;;;11.80;;
6199;SDS011;3133;43.214;27.906;2023-05-29T04:47:17;19.03;;;13.30;;
6199;SDS011;3133;43.214;27.906;2023-05-29T04:49:46;22.33;;;14.40;;
6199;SDS011;3133;43.214;27.906;2023-05-29T04:52:15;22.00;;;14.50;;
6199;SDS011;3133;43.214;27.906;2023-05-29T04:54:42;21.77;;;12.90;;
6199;SDS011;3133;43.214;27.906;2023-05-29T04:57:09;18.57;;;12.67;;
6199;SDS011;3133;43.214;27.906;2023-05-29T04:59:36;20.17;;;13.37;;
6199;SDS011;3133;43.214;27.906;2023-05-29T05:02:04;21.10;;;13.53;;
6199;SDS011;3133;43.214;27.906;2023-05-29T05:04:32;16.13;;;13.03;;
6199;SDS011;3133;43.214;27.906;2023-05-29T05:07:01;27.10;;;13.00;;
6199;SDS011;3133;43.214;27.906;2023-05-29T05:09:28;15.70;;;12.13;;
6199;SDS011;3133;43.214;27.906;2023-05-29T05:11:58;16.57;;;12.93;;
6199;SDS011;3133;43.214;27.906;2023-05-29T05:14:27;21.67;;;14.23;;
6199;SDS011;3133;43.214;27.906;2023-05-29T05:16:56;19.27;;;12.73;;
6199;SDS011;3133;43.214;27.906;2023-05-29T05:19:23;19.83;;;13.10;;
6199;SDS011;3133;43.214;27.906;2023-05-29T05:21:49;22.17;;;12.93;;
6199;SDS011;3133;43.214;27.906;2023-05-29T05:24:20;16.63;;;12.13;;
6199;SDS011;3133;43.214;27.906;2023-05-29T05:26:47;15.83;;;12.73;;
6199;SDS011;3133;43.214;27.906;2023-05-29T05:29:16;15.20;;;12.00;;
6199;SDS011;3133;43.214;27.906;2023-05-29T05:31:43;19.70;;;12.90;;
6199;SDS011;3133;43.214;27.906;2023-05-29T05:34:11;22.37;;;13.27;;
6199;SDS011;3133;43.214;27.906;2023-05-29T05:36:37;19.30;;;13.47;;
6199;SDS011;3133;43.214;27.906;2023-05-29T05:39:05;17.17;;;12.90;;
6199;SDS011;3133;43.214;27.906;2023-05-29T05:41:34;16.13;;;12.73;;
6199;SDS011;3133;43.214;27.906;2023-05-29T05:44:00;31.60;;;13.13;;
6199;SDS011;3133;43.214;27.906;2023-05-29T05:46:28;19.43;;;12.60;;
6199;SDS011;3133;43.214;27.906;2023-05-29T05:48:59;17.30;;;13.37;;
6199;SDS011;3133;43.214;27.906;2023-05-29T05:51:26;18.17;;;12.43;;
6199;SDS011;3133;43.214;27.906;2023-05-29T05:53:54;19.60;;;13.93;;
6199;SDS011;3133;43.214;27.906;2023-05-29T05:56:27;23.83;;;12.23;;
6199;SDS011;3133;43.214;27.906;2023-05-29T05:58:56;16.97;;;12.67;;
6199;SDS011;3133;43.214;27.906;2023-05-29T06:01:23;17.57;;;13.07;;
6199;SDS011;3133;43.214;27.906;2023-05-29T06:03:50;24.40;;;12.60;;
6199;SDS011;3133;43.214;27.906;2023-05-29T06:06:17;12.50;;;10.30;;
6199;SDS011;3133;43.214;27.906;2023-05-29T06:08:44;16.17;;;11.37;;
6199;SDS011;3133;43.214;27.906;2023-05-29T06:11:13;19.10;;;11.17;;
6199;SDS011;3133;43.214;27.906;2023-05-29T06:13:42;19.10;;;13.43;;
6199;SDS011;3133;43.214;27.906;2023-05-29T06:16:10;14.10;;;11.50;;
6199;SDS011;3133;43.214;27.906;2023-05-29T06:18:37;13.53;;;11.27;;
6199;SDS011;3133;43.214;27.906;2023-05-29T06:21:05;18.97;;;11.57;;
6199;SDS011;3133;43.214;27.906;2023-05-29T06:23:33;19.47;;;11.37;;
6199;SDS011;3133;43.214;27.906;2023-05-29T06:26:01;16.80;;;12.60;;
6199;SDS011;3133;43.214;27.906;2023-05-29T06:28:31;18.50;;;13.27;;
6199;SDS011;3133;43.214;27.906;2023-05-29T06:30:59;14.73;;;11.90;;
6199;SDS011;3133;43.214;27.906;2023-05-29T06:33:27;13.97;;;11.63;;
6199;SDS011;3133;43.214;27.906;2023-05-29T06:35:54;15.50;;;10.73;;
6199;SDS011;3133;43.214;27.906;2023-05-29T06:38:23;18.83;;;10.63;;
6199;SDS011;3133;43.214;27.906;2023-05-29T06:40:50;10.40;;;8.83;;
6199;SDS011;3133;43.214;27.906;2023-05-29T06:43:18;15.17;;;8.67;;
6199;SDS011;3133;43.214;27.906;2023-05-29T06:45:45;12.47;;;9.17;;
6199;SDS011;3133;43.214;27.906;2023-05-29T06:48:12;13.03;;;10.00;;
6199;SDS011;3133;43.214;27.906;2023-05-29T06:50:40;12.43;;;9.67;;
6199;SDS011;3133;43.214;27.906;2023-05-29T06:53:10;11.17;;;9.87;;
6199;SDS011;3133;43.214;27.906;2023-05-29T06:55:37;14.27;;;11.70;;
6199;SDS011;3133;43.214;27.906;2023-05-29T06:58:05;17.87;;;12.80;;
6199;SDS011;3133;43.214;27.906;2023-05-29T07:00:33;16.50;;;13.13;;
6199;SDS011;3133;43.214;27.906;2023-05-29T07:03:00;20.37;;;14.67;;
6199;SDS011;3133;43.214;27.906;2023-05-29T07:05:28;17.47;;;13.63;;
6199;SDS011;3133;43.214;27.906;2023-05-29T07:07:56;19.43;;;14.93;;
6199;SDS011;3133;43.214;27.906;2023-05-29T07:10:23;24.60;;;15.27;;
6199;SDS011;3133;43.214;27.906;2023-05-29T07:12:49;22.10;;;16.57;;
6199;SDS011;3133;43.214;27.906;2023-05-29T07:15:16;22.07;;;16.37;;
6199;SDS011;3133;43.214;27.906;2023-05-29T07:17:43;28.70;;;14.63;;
6199;SDS011;3133;43.214;27.906;2023-05-29T07:20:10;18.20;;;13.87;;
6199;SDS011;3133;43.214;27.906;2023-05-29T07:22:40;22.70;;;14.67;;
6199;SDS011;3133;43.214;27.906;2023-05-29T07:25:08;18.87;;;13.90;;
6199;SDS011;3133;43.214;27.906;2023-05-29T07:27:35;170.87;;;30.40;;
6199;SDS011;3133;43.214;27.906;2023-05-29T07:30:04;25.43;;;12.67;;
6199;SDS011;3133;43.214;27.906;2023-05-29T07:32:33;16.20;;;12.33;;
6199;SDS011;3133;43.214;27.906;2023-05-29T07:35:00;20.47;;;11.97;;
6199;SDS011;3133;43.214;27.906;2023-05-29T07:37:27;19.83;;;11.07;;
6199;SDS011;3133;43.214;27.906;2023-05-29T07:39:55;15.27;;;9.77;;
6199;SDS011;3133;43.214;27.906;2023-05-29T07:42:23;12.43;;;9.27;;
6199;SDS011;3133;43.214;27.906;2023-05-29T07:44:50;33.50;;;12.10;;
6199;SDS011;3133;43.214;27.906;2023-05-29T07:47:16;18.90;;;10.73;;
6199;SDS011;3133;43.214;27.906;2023-05-29T07:49:43;15.67;;;9.13;;
6199;SDS011;3133;43.214;27.906;2023-05-29T07:52:10;10.70;;;8.80;;
6199;SDS011;3133;43.214;27.906;2023-05-29T07:54:37;14.80;;;9.20;;
6199;SDS011;3133;43.214;27.906;2023-05-29T07:57:04;16.30;;;10.67;;
6199;SDS011;3133;43.214;27.906;2023-05-29T07:59:36;17.43;;;10.03;;
6199;SDS011;3133;43.214;27.906;2023-05-29T08:02:03;27.03;;;11.20;;
6199;SDS011;3133;43.214;27.906;2023-05-29T08:04:30;28.07;;;11.20;;
6199;SDS011;3133;43.214;27.906;2023-05-29T08:06:57;16.23;;;9.50;;
6199;SDS011;3133;43.214;27.906;2023-05-29T08:11:54;18.13;;;10.40;;
6199;SDS011;3133;43.214;27.906;2023-05-29T08:14:20;19.77;;;9.37;;
6199;SDS011;3133;43.214;27.906;2023-05-29T08:16:49;18.07;;;9.50;;
6199;SDS011;3133;43.214;27.906;2023-05-29T08:19:15;29.23;;;12.20;;
6199;SDS011;3133;43.214;27.906;2023-05-29T08:21:42;20.77;;;9.97;;
6199;SDS011;3133;43.214;27.906;2023-05-29T08:24:09;24.13;;;10.67;;
6199;SDS011;3133;43.214;27.906;2023-05-29T08:26:36;25.37;;;10.83;;
6199;SDS011;3133;43.214;27.906;2023-05-29T08:29:03;26.23;;;11.00;;
6199;SDS011;3133;43.214;27.906;2023-05-29T08:31:31;19.73;;;10.23;;
6199;SDS011;3133;43.214;27.906;2023-05-29T08:33:59;26.47;;;13.40;;
6199;SDS011;3133;43.214;27.906;2023-05-29T08:36:26;20.93;;;13.40;;
6199;SDS011;3133;43.214;27.906;2023-05-29T08:38:53;22.70;;;13.50;;
6199;SDS011;3133;43.214;27.906;2023-05-29T08:41:31;25.87;;;15.10;;
6199;SDS011;3133;43.214;27.906;2023-05-29T08:44:08;31.87;;;18.13;;
6199;SDS011;3133;43.214;27.906;2023-05-29T08:46:42;31.47;;;16.13;;
6199;SDS011;3133;43.214;27.906;2023-05-29T08:49:12;31.33;;;17.17;;
6199;SDS011;3133;43.214;27.906;2023-05-29T08:51:47;40.63;;;20.20;;
6199;SDS011;3133;43.214;27.906;2023-05-29T08:54:20;34.93;;;17.80;;
6199;SDS011;3133;43.214;27.906;2023-05-29T08:56:48;28.60;;;16.30;;
6199;SDS011;3133;43.214;27.906;2023-05-29T08:59:15;27.80;;;16.20;;
6199;SDS011;3133;43.214;27.906;2023-05-29T09:01:43;45.13;;;17.30;;
6199;SDS011;3133;43.214;27.906;2023-05-29T09:04:12;25.50;;;15.43;;
6199;SDS011;3133;43.214;27.906;2023-05-29T09:06:43;26.63;;;14.30;;
6199;SDS011;3133;43.214;27.906;2023-05-29T09:09:13;38.60;;;16.13;;
6199;SDS011;3133;43.214;27.906;2023-05-29T09:11:41;14.77;;;11.03;;
6199;SDS011;3133;43.214;27.906;2023-05-29T09:14:10;16.80;;;10.77;;
6199;SDS011;3133;43.214;27.906;2023-05-29T09:16:41;22.43;;;13.97;;
6199;SDS011;3133;43.214;27.906;2023-05-29T09:19:08;31.67;;;17.40;;
6199;SDS011;3133;43.214;27.906;2023-05-29T09:21:38;35.07;;;19.40;;
6199;SDS011;3133;43.214;27.906;2023-05-29T09:24:05;29.63;;;14.87;;
6199;SDS011;3133;43.214;27.906;2023-05-29T09:26:32;26.83;;;19.27;;
6199;SDS011;3133;43.214;27.906;2023-05-29T09:28:59;46.93;;;19.77;;
6199;SDS011;3133;43.214;27.906;2023-05-29T09:31:26;22.93;;;14.60;;
6199;SDS011;3133;43.214;27.906;2023-05-29T09:33:53;17.57;;;11.67;;
6199;SDS011;3133;43.214;27.906;2023-05-29T09:36:21;125.70;;;27.20;;
6199;SDS011;3133;43.214;27.906;2023-05-29T09:41:34;15.07;;;9.63;;
6199;SDS011;3133;43.214;27.906;2023-05-29T09:44:02;28.43;;;10.83;;
6199;SDS011;3133;43.214;27.906;2023-05-29T09:46:38;60.03;;;17.10;;
6199;SDS011;3133;43.214;27.906;2023-05-29T09:49:13;11.27;;;8.50;;
6199;SDS011;3133;43.214;27.906;2023-05-29T09:51:55;17.00;;;9.47;;
6199;SDS011;3133;43.214;27.906;2023-05-29T09:54:28;11.97;;;8.20;;
6199;SDS011;3133;43.214;27.906;2023-05-29T09:56:57;11.93;;;8.47;;
6199;SDS011;3133;43.214;27.906;2023-05-29T09:59:30;38.50;;;12.53;;
6199;SDS011;3133;43.214;27.906;2023-05-29T10:02:03;21.60;;;12.93;;
6199;SDS011;3133;43.214;27.906;2023-05-29T10:04:32;23.27;;;12.60;;
6199;SDS011;3133;43.214;27.906;2023-05-29T10:07:04;15.57;;;11.10;;
6199;SDS011;3133;43.214;27.906;2023-05-29T10:09:41;13.03;;;9.03;;
6199;SDS011;3133;43.214;27.906;2023-05-29T10:12:13;11.50;;;9.83;;
6199;SDS011;3133;43.214;27.906;2023-05-29T10:14:47;13.83;;;10.27;;
6199;SDS011;3133;43.214;27.906;2023-05-29T10:17:18;14.13;;;9.40;;
6199;SDS011;3133;43.214;27.906;2023-05-29T10:19:52;14.63;;;9.67;;
6199;SDS011;3133;43.214;27.906;2023-05-29T10:22:21;18.40;;;11.30;;
6199;SDS011;3133;43.214;27.906;2023-05-29T10:24:54;13.57;;;10.83;;
6199;SDS011;3133;43.214;27.906;2023-05-29T10:27:26;14.20;;;11.67;;
6199;SDS011;3133;43.214;27.906;2023-05-29T10:29:56;18.17;;;12.57;;
6199;SDS011;3133;43.214;27.906;2023-05-29T10:33:03;31.63;;;14.07;;
6199;SDS011;3133;43.214;27.906;2023-05-29T10:36:01;13.90;;;11.13;;
6199;SDS011;3133;43.214;27.906;2023-05-29T10:38:40;20.30;;;12.80;;
6199;SDS011;3133;43.214;27.906;2023-05-29T10:41:32;17.10;;;12.53;;
6199;SDS011;3133;43.214;27.906;2023-05-29T10:47:01;45.27;;;20.03;;
6199;SDS011;3133;43.214;27.906;2023-05-29T10:49:33;40.33;;;17.27;;
6199;SDS011;3133;43.214;27.906;2023-05-29T10:52:03;23.13;;;14.10;;
6199;SDS011;3133;43.214;27.906;2023-05-29T10:54:50;13.90;;;11.23;;
6199;SDS011;3133;43.214;27.906;2023-05-29T10:57:21;12.83;;;11.50;;
6199;SDS011;3133;43.214;27.906;2023-05-29T10:59:59;17.87;;;10.77;;
6199;SDS011;3133;43.214;27.906;2023-05-29T11:02:38;18.80;;;10.80;;
6199;SDS011;3133;43.214;27.906;2023-05-29T11:05:19;13.00;;;9.97;;
6199;SDS011;3133;43.214;27.906;2023-05-29T11:07:54;15.10;;;11.00;;
6199;SDS011;3133;43.214;27.906;2023-05-29T11:13:24;11.47;;;9.97;;
6199;SDS011;3133;43.214;27.906;2023-05-29T11:16:05;11.17;;;9.83;;
6199;SDS011;3133;43.214;27.906;2023-05-29T11:18:42;10.43;;;9.33;;
6199;SDS011;3133;43.214;27.906;2023-05-29T11:24:13;8.50;;;6.80;;
6199;SDS011;3133;43.214;27.906;2023-05-29T11:26:47;8.10;;;6.43;;
6199;SDS011;3133;43.214;27.906;2023-05-29T11:29:16;8.60;;;5.87;;
6199;SDS011;3133;43.214;27.906;2023-05-29T11:31:49;8.80;;;6.07;;
6199;SDS011;3133;43.214;27.906;2023-05-29T11:34:24;6.60;;;5.87;;
6199;SDS011;3133;43.214;27.906;2023-05-29T11:36:56;9.33;;;5.50;;
6199;SDS011;3133;43.214;27.906;2023-05-29T11:39:25;6.47;;;5.70;;
6199;SDS011;3133;43.214;27.906;2023-05-29T11:41:52;5.47;;;4.60;;
6199;SDS011;3133;43.214;27.906;2023-05-29T11:44:25;6.00;;;4.63;;
6199;SDS011;3133;43.214;27.906;2023-05-29T11:46:59;11.57;;;4.83;;
6199;SDS011;3133;43.214;27.906;2023-05-29T11:49:28;3.87;;;3.47;;
6199;SDS011;3133;43.214;27.906;2023-05-29T11:52:05;4.07;;;3.73;;
6199;SDS011;3133;43.214;27.906;2023-05-29T11:54:32;5.27;;;3.70;;
6199;SDS011;3133;43.214;27.906;2023-05-29T11:57:00;3.83;;;3.43;;
6199;SDS011;3133;43.214;27.906;2023-05-29T11:59:29;4.13;;;3.67;;
6199;SDS011;3133;43.214;27.906;2023-05-29T12:02:04;4.13;;;3.53;;
6199;SDS011;3133;43.214;27.906;2023-05-29T12:04:32;3.80;;;3.50;;
6199;SDS011;3133;43.214;27.906;2023-05-29T12:07:00;4.23;;;3.83;;
6199;SDS011;3133;43.214;27.906;2023-05-29T12:09:31;13.33;;;3.77;;
6199;SDS011;3133;43.214;27.906;2023-05-29T12:12:04;4.07;;;3.77;;
6199;SDS011;3133;43.214;27.906;2023-05-29T12:14:33;3.80;;;3.50;;
6199;SDS011;3133;43.214;27.906;2023-05-29T12:17:00;4.30;;;3.90;;
6199;SDS011;3133;43.214;27.906;2023-05-29T12:19:34;4.20;;;3.80;;
6199;SDS011;3133;43.214;27.906;2023-05-29T12:22:05;4.50;;;4.10;;
6199;SDS011;3133;43.214;27.906;2023-05-29T12:24:40;7.57;;;4.37;;
6199;SDS011;3133;43.214;27.906;2023-05-29T12:27:27;4.57;;;4.17;;
6199;SDS011;3133;43.214;27.906;2023-05-29T12:30:00;5.93;;;4.10;;
6199;SDS011;3133;43.214;27.906;2023-05-29T12:32:34;4.90;;;4.40;;
6199;SDS011;3133;43.214;27.906;2023-05-29T12:35:09;6.43;;;4.33;;
6199;SDS011;3133;43.214;27.906;2023-05-29T12:37:41;4.83;;;4.33;;
6199;SDS011;3133;43.214;27.906;2023-05-29T12:40:09;6.03;;;4.80;;
6199;SDS011;3133;43.214;27.906;2023-05-29T12:42:43;10.43;;;5.30;;
6199;SDS011;3133;43.214;27.906;2023-05-29T12:45:11;4.73;;;4.33;;
6199;SDS011;3133;43.214;27.906;2023-05-29T12:47:46;4.77;;;3.97;;
6199;SDS011;3133;43.214;27.906;2023-05-29T12:50:21;9.77;;;4.90;;
6199;SDS011;3133;43.214;27.906;2023-05-29T12:52:56;8.60;;;4.47;;
6199;SDS011;3133;43.214;27.906;2023-05-29T12:55:25;7.93;;;4.87;;
6199;SDS011;3133;43.214;27.906;2023-05-29T12:57:53;6.93;;;4.83;;
6199;SDS011;3133;43.214;27.906;2023-05-29T13:00:22;6.70;;;4.37;;
6199;SDS011;3133;43.214;27.906;2023-05-29T13:02:50;4.93;;;4.30;;
6199;SDS011;3133;43.214;27.906;2023-05-29T13:05:19;5.00;;;4.50;;
6199;SDS011;3133;43.214;27.906;2023-05-29T13:07:48;5.30;;;4.77;;
6199;SDS011;3133;43.214;27.906;2023-05-29T13:10:16;10.67;;;5.07;;
6199;SDS011;3133;43.214;27.906;2023-05-29T13:12:53;6.10;;;4.77;;
6199;SDS011;3133;43.214;27.906;2023-05-29T13:15:22;5.67;;;4.67;;
6199;SDS011;3133;43.214;27.906;2023-05-29T13:17:49;6.90;;;4.97;;
6199;SDS011;3133;43.214;27.906;2023-05-29T13:20:17;5.73;;;5.10;;
6199;SDS011;3133;43.214;27.906;2023-05-29T13:22:48;7.43;;;5.47;;
6199;SDS011;3133;43.214;27.906;2023-05-29T13:25:19;6.70;;;5.27;;
6199;SDS011;3133;43.214;27.906;2023-05-29T13:27:48;6.20;;;5.37;;
6199;SDS011;3133;43.214;27.906;2023-05-29T13:30:17;5.43;;;4.73;;
6199;SDS011;3133;43.214;27.906;2023-05-29T13:32:46;5.93;;;5.33;;
6199;SDS011;3133;43.214;27.906;2023-05-29T13:35:15;5.97;;;5.33;;
6199;SDS011;3133;43.214;27.906;2023-05-29T13:37:43;7.80;;;5.37;;
6199;SDS011;3133;43.214;27.906;2023-05-29T13:40:11;5.60;;;4.80;;
6199;SDS011;3133;43.214;27.906;2023-05-29T13:42:38;5.87;;;4.83;;
6199;SDS011;3133;43.214;27.906;2023-05-29T13:45:10;7.80;;;5.63;;
6199;SDS011;3133;43.214;27.906;2023-05-29T13:47:40;6.60;;;4.70;;
6199;SDS011;3133;43.214;27.906;2023-05-29T13:50:11;5.93;;;5.33;;
6199;SDS011;3133;43.214;27.906;2023-05-29T13:52:38;7.10;;;5.77;;
6199;SDS011;3133;43.214;27.906;2023-05-29T13:55:06;6.13;;;5.17;;
6199;SDS011;3133;43.214;27.906;2023-05-29T13:57:34;5.57;;;5.07;;
6199;SDS011;3133;43.214;27.906;2023-05-29T14:00:01;8.37;;;5.43;;
6199;SDS011;3133;43.214;27.906;2023-05-29T14:02:29;10.43;;;5.53;;
6199;SDS011;3133;43.214;27.906;2023-05-29T14:05:00;8.10;;;3.80;;
6199;SDS011;3133;43.214;27.906;2023-05-29T14:07:30;6.67;;;5.50;;
6199;SDS011;3133;43.214;27.906;2023-05-29T14:09:59;7.40;;;5.40;;
6199;SDS011;3133;43.214;27.906;2023-05-29T14:12:27;8.70;;;6.10;;
6199;SDS011;3133;43.214;27.906;2023-05-29T14:14:56;9.63;;;5.57;;
6199;SDS011;3133;43.214;27.906;2023-05-29T14:17:31;10.63;;;6.17;;
6199;SDS011;3133;43.214;27.906;2023-05-29T14:19:58;8.50;;;6.13;;
6199;SDS011;3133;43.214;27.906;2023-05-29T14:22:37;7.53;;;6.27;;
6199;SDS011;3133;43.214;27.906;2023-05-29T14:25:09;9.70;;;6.43;;
6199;SDS011;3133;43.214;27.906;2023-05-29T14:27:36;9.60;;;5.87;;
6199;SDS011;3133;43.214;27.906;2023-05-29T14:30:05;6.70;;;5.77;;
6199;SDS011;3133;43.214;27.906;2023-05-29T14:32:38;9.47;;;5.90;;
6199;SDS011;3133;43.214;27.906;2023-05-29T14:35:08;8.57;;;6.87;;
6199;SDS011;3133;43.214;27.906;2023-05-29T14:37:38;7.60;;;6.43;;
6199;SDS011;3133;43.214;27.906;2023-05-29T14:40:06;7.73;;;6.43;;
6199;SDS011;3133;43.214;27.906;2023-05-29T14:46:03;6.80;;;6.10;;
6199;SDS011;3133;43.214;27.906;2023-05-29T14:49:09;15.40;;;5.97;;
6199;SDS011;3133;43.214;27.906;2023-05-29T14:51:39;6.73;;;5.93;;
6199;SDS011;3133;43.214;27.906;2023-05-29T14:54:10;13.43;;;6.37;;
6199;SDS011;3133;43.214;27.906;2023-05-29T14:56:51;10.77;;;6.53;;
6199;SDS011;3133;43.214;27.906;2023-05-29T14:59:19;7.97;;;6.20;;
6199;SDS011;3133;43.214;27.906;2023-05-29T15:01:57;11.87;;;7.10;;
6199;SDS011;3133;43.214;27.906;2023-05-29T15:04:28;7.23;;;5.97;;
6199;SDS011;3133;43.214;27.906;2023-05-29T15:07:00;6.03;;;5.43;;
6199;SDS011;3133;43.214;27.906;2023-05-29T15:09:32;9.00;;;6.47;;
6199;SDS011;3133;43.214;27.906;2023-05-29T15:12:09;8.23;;;5.47;;
6199;SDS011;3133;43.214;27.906;2023-05-29T15:14:37;7.63;;;5.70;;
6199;SDS011;3133;43.214;27.906;2023-05-29T15:17:07;11.90;;;6.10;;
6199;SDS011;3133;43.214;27.906;2023-05-29T15:19:36;5.87;;;5.27;;